Time;durP1;ratioP1;P1;durP2;ratioP2;P2;SDS_P1;SDS_P2;PMS_P1;PMS_P2;Temp;Humidity;BMP_temperature;BMP_pressure;BME280_temperature;BME280_humidity;BME280_pressure;Samples;Min_cycle;Max_cycle;Signal;HPM_P1;HPM_P2
2023/08/05 06:00:56;;;;;;;4.60;2.78;;;;;;;;;;10672207;22;20055;-86
2023/08/05 06:11:42;;;;;;;4.72;1.92;;;;;;;;;;10632230;27;20497;-85
2023/08/05 06:16:45;;;;;;;5.10;3.53;;;;;;;;;;10630481;28;20076;-84
2023/08/05 06:21:46;;;;;;;4.22;2.92;;;;;;;;;;10627581;28;20019;-85
2023/08/05 06:33:09;;;;;;;5.88;3.85;;;;;;;;;;10514436;27;20032;-85
2023/08/05 06:38:34;;;;;;;3.03;2.10;;;;;;;;;;10620939;28;20488;-85
2023/08/05 06:49:20;;;;;;;8.18;6.47;;;;;;;;;;10624148;28;20024;-85
2023/08/05 06:54:27;;;;;;;6.78;5.25;;;;;;;;;;10622517;28;20023;-84
2023/08/05 06:59:34;;;;;;;6.07;4.10;;;;;;;;;;10602519;27;20111;-85
2023/08/05 07:10:34;;;;;;;5.55;3.30;;;;;;;;;;10592448;28;20095;-83
2023/08/05 07:15:40;;;;;;;3.85;2.60;;;;;;;;;;10602829;28;20415;-85
2023/08/05 07:21:17;;;;;;;5.90;2.47;;;;;;;;;;10596267;28;20020;-84
2023/08/05 07:26:22;;;;;;;6.85;2.97;;;;;;;;;;10596018;28;20043;-84
2023/08/05 07:32:04;;;;;;;3.95;2.55;;;;;;;;;;10596229;28;20036;-84
2023/08/05 07:37:43;;;;;;;4.28;3.00;;;;;;;;;;10551287;28;20055;-85
2023/08/05 07:43:09;;;;;;;5.55;3.25;;;;;;;;;;10594334;28;20080;-84
2023/08/05 07:48:11;;;;;;;4.18;2.90;;;;;;;;;;10600226;28;20069;-85
2023/08/05 07:53:55;;;;;;;6.13;3.30;;;;;;;;;;10602832;28;20047;-83
2023/08/05 07:58:56;;;;;;;6.97;3.20;;;;;;;;;;10597633;28;20050;-83
2023/08/05 08:04:14;;;;;;;5.22;3.63;;;;;;;;;;10597846;28;20084;-84
2023/08/05 08:09:35;;;;;;;5.90;3.70;;;;;;;;;;10596354;28;20032;-84
2023/08/05 08:14:54;;;;;;;5.15;3.35;;;;;;;;;;10596197;28;20031;-87
2023/08/05 08:19:55;;;;;;;5.32;3.33;;;;;;;;;;10596118;28;20030;-84
2023/08/05 08:25:03;;;;;;;7.13;5.20;;;;;;;;;;10596763;28;20024;-85
2023/08/05 08:30:12;;;;;;;7.25;5.55;;;;;;;;;;10596291;28;20080;-84
2023/08/05 08:35:15;;;;;;;7.38;5.63;;;;;;;;;;10597976;28;20035;-83
2023/08/05 08:40:17;;;;;;;5.32;4.30;;;;;;;;;;10602207;28;20042;-85
2023/08/05 08:45:24;;;;;;;8.68;6.78;;;;;;;;;;10605501;28;20039;-83
2023/08/05 08:50:31;;;;;;;6.68;4.65;;;;;;;;;;10620087;28;20043;-84
2023/08/05 08:55:35;;;;;;;7.40;4.95;;;;;;;;;;10603598;28;20530;-84
2023/08/05 09:00:37;;;;;;;5.70;4.75;;;;;;;;;;10597270;28;20027;-84
2023/08/05 09:05:46;;;;;;;6.85;6.10;;;;;;;;;;10596512;28;20412;-84
2023/08/05 09:10:58;;;;;;;10.93;9.10;;;;;;;;;;10598087;28;20075;-84
2023/08/05 09:15:59;;;;;;;5.82;5.10;;;;;;;;;;10615427;27;20126;-84
2023/08/05 09:21:01;;;;;;;5.88;4.50;;;;;;;;;;10621824;27;20403;-84
2023/08/05 09:26:03;;;;;;;7.90;5.10;;;;;;;;;;10624141;27;20027;-83
2023/08/05 09:31:17;;;;;;;5.50;4.85;;;;;;;;;;10606834;27;20099;-84
2023/08/05 09:36:26;;;;;;;8.00;7.15;;;;;;;;;;10624205;27;20027;-84
2023/08/05 09:42:06;;;;;;;7.30;5.78;;;;;;;;;;10625534;27;20031;-85
2023/08/05 09:47:09;;;;;;;6.35;5.72;;;;;;;;;;10648826;28;20011;-82
2023/08/05 09:57:33;;;;;;;8.00;6.63;;;;;;;;;;10640519;28;20031;-83
2023/08/05 10:02:35;;;;;;;8.00;6.65;;;;;;;;;;10620886;28;20019;-85
2023/08/05 10:07:38;;;;;;;7.47;6.28;;;;;;;;;;10622642;28;20031;-83
2023/08/05 10:12:42;;;;;;;7.32;6.38;;;;;;;;;;10641077;28;20126;-84
2023/08/05 10:17:57;;;;;;;8.10;7.07;;;;;;;;;;10621721;28;20042;-83
2023/08/05 10:23:04;;;;;;;9.98;8.07;;;;;;;;;;10622378;28;20089;-87
2023/08/05 10:28:05;;;;;;;7.72;6.60;;;;;;;;;;10620049;28;20033;-87
2023/08/05 10:33:11;;;;;;;9.18;7.20;;;;;;;;;;10626798;27;20395;-87
2023/08/05 10:38:16;;;;;;;8.38;7.40;;;;;;;;;;10630085;27;20038;-84
2023/08/05 10:43:40;;;;;;;8.95;7.90;;;;;;;;;;10630195;27;20077;-83
2023/08/05 10:48:51;;;;;;;8.55;7.65;;;;;;;;;;10642245;27;20434;-87
2023/08/05 10:53:56;;;;;;;11.05;9.55;;;;;;;;;;10664947;27;20023;-83
2023/08/05 10:59:25;;;;;;;10.40;8.23;;;;;;;;;;10642666;27;20027;-85
2023/08/05 11:04:28;;;;;;;8.30;7.50;;;;;;;;;;10635085;27;20059;-84
2023/08/05 11:09:35;;;;;;;7.88;6.97;;;;;;;;;;10627522;27;20035;-84
2023/08/05 11:14:37;;;;;;;7.45;6.75;;;;;;;;;;10626651;27;20023;-84
2023/08/05 11:19:55;;;;;;;7.57;5.95;;;;;;;;;;10626699;27;20045;-84
2023/08/05 11:25:12;;;;;;;6.90;6.18;;;;;;;;;;10624622;27;20046;-85
2023/08/05 11:30:18;;;;;;;6.75;6.05;;;;;;;;;;10631586;27;20056;-84
2023/08/05 11:35:19;;;;;;;8.30;6.38;;;;;;;;;;10644445;27;20023;-84
2023/08/05 11:40:20;;;;;;;8.52;6.53;;;;;;;;;;10644804;27;20534;-84
2023/08/05 11:45:22;;;;;;;7.55;6.72;;;;;;;;;;10627803;27;20161;-84
2023/08/05 11:50:34;;;;;;;6.47;5.57;;;;;;;;;;10649068;27;20037;-83
2023/08/05 11:55:39;;;;;;;7.03;6.28;;;;;;;;;;10629013;27;20023;-84
2023/08/05 12:00:48;;;;;;;5.70;5.05;;;;;;;;;;10637240;27;20103;-82
2023/08/05 12:05:49;;;;;;;6.85;5.30;;;;;;;;;;10615442;27;20114;-82
2023/08/05 12:10:56;;;;;;;5.28;4.82;;;;;;;;;;10616476;27;20559;-81
2023/08/05 12:15:57;;;;;;;5.55;5.05;;;;;;;;;;10623306;27;20023;-81
2023/08/05 12:20:58;;;;;;;9.82;6.13;;;;;;;;;;10633814;27;20045;-82
2023/08/05 12:26:00;;;;;;;5.03;4.53;;;;;;;;;;10625971;27;20023;-81
2023/08/05 12:31:01;;;;;;;5.10;4.60;;;;;;;;;;10621153;27;20023;-81
2023/08/05 12:36:02;;;;;;;7.13;4.32;;;;;;;;;;10620793;27;20035;-81
2023/08/05 12:41:03;;;;;;;5.50;3.67;;;;;;;;;;10638749;27;20034;-80
2023/08/05 12:46:05;;;;;;;3.85;3.40;;;;;;;;;;10612864;27;20046;-80
2023/08/05 12:51:06;;;;;;;3.70;3.40;;;;;;;;;;10620092;27;20396;-81
2023/08/05 12:56:07;;;;;;;4.47;3.67;;;;;;;;;;10646939;27;20059;-81
2023/08/05 13:01:09;;;;;;;4.28;3.33;;;;;;;;;;10637993;27;20496;-81
2023/08/05 13:06:10;;;;;;;4.22;3.83;;;;;;;;;;10616085;27;20063;-82
2023/08/05 13:11:17;;;;;;;5.13;4.22;;;;;;;;;;10614998;27;20389;-82
2023/08/05 13:16:28;;;;;;;5.20;4.70;;;;;;;;;;10615964;27;20062;-82
2023/08/05 13:21:35;;;;;;;6.10;5.50;;;;;;;;;;10617118;27;20023;-82
2023/08/05 13:26:45;;;;;;;6.47;5.70;;;;;;;;;;10617345;27;20022;-82
2023/08/05 13:31:46;;;;;;;6.97;4.87;;;;;;;;;;10639356;27;20026;-81
2023/08/05 13:36:47;;;;;;;5.25;4.40;;;;;;;;;;10640508;27;20011;-81
2023/08/05 13:41:56;;;;;;;7.85;4.55;;;;;;;;;;10638113;27;20027;-81
2023/08/05 13:46:57;;;;;;;7.50;4.90;;;;;;;;;;10658884;28;20042;-81
2023/08/05 13:51:58;;;;;;;6.05;5.22;;;;;;;;;;10634202;28;20023;-82
2023/08/05 13:56:59;;;;;;;10.65;4.20;;;;;;;;;;10627645;28;20039;-82
2023/08/05 14:02:00;;;;;;;6.10;3.70;;;;;;;;;;10639389;28;20055;-82
2023/08/05 14:07:05;;;;;;;7.82;4.10;;;;;;;;;;10643796;27;20027;-82
2023/08/05 14:12:07;;;;;;;6.18;3.42;;;;;;;;;;10639013;27;20035;-82
2023/08/05 14:17:08;;;;;;;4.80;2.97;;;;;;;;;;10635261;27;20050;-82
2023/08/05 14:22:08;;;;;;;3.90;3.05;;;;;;;;;;10648872;27;20026;-81
2023/08/05 14:27:10;;;;;;;4.07;3.00;;;;;;;;;;10631606;27;20496;-81
2023/08/05 14:32:21;;;;;;;5.78;2.60;;;;;;;;;;10634303;27;20027;-81
2023/08/05 14:37:25;;;;;;;6.03;3.20;;;;;;;;;;10637701;27;20099;-81
2023/08/05 14:42:34;;;;;;;3.78;3.35;;;;;;;;;;10620864;27;20039;-80
2023/08/05 14:47:35;;;;;;;5.67;3.10;;;;;;;;;;10635693;27;20130;-80
2023/08/05 14:52:36;;;;;;;3.90;2.58;;;;;;;;;;10637038;27;20110;-81
2023/08/05 14:57:38;;;;;;;3.20;2.60;;;;;;;;;;10654765;27;20035;-81
2023/08/05 15:02:40;;;;;;;3.90;2.80;;;;;;;;;;10657582;27;20035;-80
2023/08/05 15:07:41;;;;;;;3.50;2.88;;;;;;;;;;10653511;27;20038;-80
2023/08/05 15:12:42;;;;;;;5.15;3.00;;;;;;;;;;10633920;27;20046;-81
2023/08/05 15:17:43;;;;;;;3.78;3.00;;;;;;;;;;10633770;27;20115;-81
2023/08/05 15:22:44;;;;;;;3.65;2.67;;;;;;;;;;10636780;27;20027;-81
2023/08/05 15:27:45;;;;;;;3.65;2.80;;;;;;;;;;10638207;27;20042;-82
2023/08/05 15:32:46;;;;;;;4.70;3.20;;;;;;;;;;10638218;27;20034;-82
2023/08/05 15:37:47;;;;;;;4.75;2.97;;;;;;;;;;10636699;27;20023;-81
2023/08/05 15:42:48;;;;;;;3.97;3.00;;;;;;;;;;10638474;27;20061;-82
2023/08/05 15:47:49;;;;;;;5.47;3.92;;;;;;;;;;10657651;27;20054;-81
2023/08/05 15:52:58;;;;;;;4.75;3.92;;;;;;;;;;10639395;27;20030;-81
2023/08/05 15:58:01;;;;;;;4.65;3.50;;;;;;;;;;10640166;27;20035;-81
2023/08/05 16:03:02;;;;;;;5.22;3.90;;;;;;;;;;10644728;27;20079;-82
2023/08/05 16:08:03;;;;;;;3.47;3.13;;;;;;;;;;10623974;27;20046;-83
2023/08/05 16:13:04;;;;;;;4.22;3.28;;;;;;;;;;10634564;27;20030;-82
2023/08/05 16:18:05;;;;;;;5.40;3.53;;;;;;;;;;10634005;27;20091;-82
2023/08/05 16:23:06;;;;;;;3.95;3.47;;;;;;;;;;10634189;27;20374;-82
2023/08/05 16:28:07;;;;;;;5.15;4.13;;;;;;;;;;10633690;27;20023;-82
2023/08/05 16:33:12;;;;;;;6.72;4.55;;;;;;;;;;10631340;27;20049;-83
2023/08/05 16:38:16;;;;;;;5.13;3.33;;;;;;;;;;10652338;27;20039;-82
2023/08/05 16:43:17;;;;;;;4.32;3.40;;;;;;;;;;10635416;27;20023;-83
2023/08/05 16:48:18;;;;;;;4.72;3.70;;;;;;;;;;10634862;27;20031;-81
2023/08/05 16:53:19;;;;;;;4.80;3.40;;;;;;;;;;10655227;27;20019;-82
2023/08/05 16:58:26;;;;;;;5.38;3.67;;;;;;;;;;10647401;27;20031;-80
2023/08/05 17:03:28;;;;;;;4.07;3.53;;;;;;;;;;10639873;27;20508;-81
2023/08/05 17:08:30;;;;;;;6.05;4.93;;;;;;;;;;10634626;27;20029;-81
2023/08/05 17:13:31;;;;;;;6.30;5.15;;;;;;;;;;10632474;27;20062;-82
2023/08/05 17:18:32;;;;;;;5.90;3.83;;;;;;;;;;10629683;27;20094;-81
2023/08/05 17:23:54;;;;;;;6.88;6.10;;;;;;;;;;10632297;27;20038;-81
2023/08/05 17:29:08;;;;;;;6.22;3.42;;;;;;;;;;10630472;27;20055;-82
2023/08/05 17:34:09;;;;;;;4.22;3.83;;;;;;;;;;10632659;27;20019;-81
2023/08/05 17:39:10;;;;;;;5.13;4.63;;;;;;;;;;10632613;27;20051;-82
2023/08/05 17:44:15;;;;;;;6.43;5.05;;;;;;;;;;10633184;27;20057;-81
2023/08/05 17:49:20;;;;;;;5.25;4.38;;;;;;;;;;10658966;28;20023;-81
2023/08/05 17:54:21;;;;;;;7.70;4.68;;;;;;;;;;10648631;28;20014;-82
2023/08/05 17:59:22;;;;;;;8.45;5.22;;;;;;;;;;10648690;28;20055;-82
2023/08/05 18:04:28;;;;;;;9.38;5.60;;;;;;;;;;10637462;28;20031;-81
2023/08/05 18:09:29;;;;;;;14.23;7.00;;;;;;;;;;10643353;28;20023;-81
2023/08/05 18:14:30;;;;;;;15.30;7.07;;;;;;;;;;10635424;28;20530;-81
2023/08/05 18:19:32;;;;;;;15.15;6.68;;;;;;;;;;10634857;28;20049;-81
2023/08/05 18:24:33;;;;;;;15.07;6.60;;;;;;;;;;10635678;28;20023;-81
2023/08/05 18:29:34;;;;;;;14.45;7.00;;;;;;;;;;10635224;28;20031;-81
2023/08/05 18:34:38;;;;;;;13.27;6.53;;;;;;;;;;10631444;28;20026;-81
2023/08/05 18:39:45;;;;;;;19.30;7.68;;;;;;;;;;10634082;28;20115;-80
2023/08/05 18:44:46;;;;;;;19.88;8.40;;;;;;;;;;10619008;28;20027;-80
2023/08/05 18:49:48;;;;;;;21.52;9.10;;;;;;;;;;10632807;28;20023;-80
2023/08/05 18:54:52;;;;;;;24.30;10.40;;;;;;;;;;10640107;27;20072;-80
2023/08/05 18:59:54;;;;;;;12.25;6.50;;;;;;;;;;10627701;27;20477;-81
2023/08/05 19:05:09;;;;;;;16.50;7.57;;;;;;;;;;10668102;27;20038;-81
2023/08/05 19:10:20;;;;;;;10.88;3.70;;;;;;;;;;10641808;27;20050;-81
